Time;durP1;ratioP1;P1;durP2;ratioP2;P2;SDS_P1;SDS_P2;PMS_P1;PMS_P2;Temp;Humidity;BMP_temperature;BMP_pressure;BME280_temperature;BME280_humidity;BME280_pressure;Samples;Min_cycle;Max_cycle;Signal;HPM_P1;HPM_P2
2023/04/12 00:02:07;;;;;;;6.50;2.17;;;11.30;99.90;;;;;;4964059;28;20437;-80
2023/04/12 00:04:34;;;;;;;9.83;2.10;;;11.30;99.90;;;;;;4974229;28;20567;-80
2023/04/12 00:07:01;;;;;;;5.63;1.97;;;11.30;99.90;;;;;;4960088;28;20534;-80
2023/04/12 00:09:30;;;;;;;6.83;1.90;;;11.20;99.90;;;;;;4974045;28;20455;-80
2023/04/12 00:11:57;;;;;;;10.20;2.73;;;11.20;99.90;;;;;;4973777;28;20788;-80
2023/04/12 00:14:23;;;;;;;6.17;2.00;;;11.20;99.90;;;;;;4968367;28;20428;-80
2023/04/12 00:16:49;;;;;;;6.00;1.93;;;11.20;99.90;;;;;;4963053;28;20459;-81
2023/04/12 00:19:15;;;;;;;4.87;1.77;;;11.10;99.90;;;;;;4974155;28;20451;-80
2023/04/12 00:21:41;;;;;;;4.77;1.90;;;11.10;1.00;;;;;;4974857;28;20207;-81
2023/04/12 00:24:07;;;;;;;8.20;2.47;;;11.00;1.00;;;;;;4974752;28;20864;-80
2023/04/12 00:26:32;;;;;;;6.60;1.60;;;11.00;1.00;;;;;;4972296;28;20208;-82
2023/04/12 00:28:58;;;;;;;5.10;1.83;;;11.00;1.00;;;;;;4964681;28;20259;-80
2023/04/12 00:31:23;;;;;;;3.93;1.60;;;10.90;1.00;;;;;;4969219;28;20189;-80
2023/04/12 00:33:49;;;;;;;11.47;2.37;;;10.80;1.00;;;;;;4971307;28;20220;-80
2023/04/12 00:36:15;;;;;;;7.63;2.17;;;10.80;1.00;;;;;;4967794;28;20184;-80
2023/04/12 00:38:41;;;;;;;7.17;2.07;;;10.80;1.00;;;;;;4971947;28;20200;-80
2023/04/12 00:41:07;;;;;;;5.17;1.97;;;10.80;1.00;;;;;;4962483;28;20428;-81
2023/04/12 00:43:32;;;;;;;4.07;1.50;;;10.70;1.00;;;;;;4974549;28;20954;-80
2023/04/12 00:45:58;;;;;;;12.33;2.07;;;10.70;1.00;;;;;;4969139;28;20523;-80
2023/04/12 00:48:25;;;;;;;8.60;2.60;;;10.60;1.00;;;;;;4972671;28;20208;-80
2023/04/12 00:50:54;;;;;;;3.87;2.20;;;10.60;1.00;;;;;;4966819;28;20434;-79
2023/04/12 00:53:20;;;;;;;5.80;1.80;;;10.50;47.50;;;;;;4971776;28;20917;-80
2023/04/12 00:55:48;;;;;;;9.87;1.60;;;10.50;99.90;;;;;;4968539;28;20439;-80
2023/04/12 00:58:15;;;;;;;9.97;1.60;;;10.50;99.90;;;;;;4973444;28;20450;-80
2023/04/12 01:00:43;;;;;;;7.07;1.87;;;10.50;99.90;;;;;;4958078;28;20452;-79
2023/04/12 01:03:10;;;;;;;6.73;2.17;;;10.40;99.90;;;;;;4957803;28;20474;-80
2023/04/12 01:05:49;;;;;;;6.03;2.10;;;10.40;99.90;;;;;;4969327;28;20435;-80
2023/04/12 01:08:27;;;;;;;4.30;1.73;;;10.40;99.90;;;;;;4971415;28;20479;-80
2023/04/12 01:11:07;;;;;;;6.30;1.73;;;10.30;99.90;;;;;;4967921;28;20816;-79
2023/04/12 01:13:51;;;;;;;2.50;1.70;;;10.30;1.00;;;;;;4965728;28;20788;-80
2023/04/12 01:16:44;;;;;;;2.70;1.23;;;10.20;1.00;;;;;;4971555;28;20428;-80
2023/04/12 01:19:53;;;;;;;2.53;1.40;;;10.20;1.00;;;;;;4969078;28;20463;-81
2023/04/12 01:22:37;;;;;;;3.10;1.30;;;10.20;1.00;;;;;;4965141;28;20440;-80
2023/04/12 01:25:38;;;;;;;4.60;2.30;;;10.10;59.80;;;;;;4970861;28;20431;-81
2023/04/12 01:28:06;;;;;;;1.93;1.60;;;10.10;99.90;;;;;;4932420;29;21178;-81
2023/04/12 01:30:32;;;;;;;4.30;1.50;;;10.10;99.90;;;;;;4959007;28;20513;-79
2023/04/12 01:33:02;;;;;;;2.45;1.40;;;10.00;99.90;;;;;;4964005;28;20435;-81
2023/04/12 01:35:30;;;;;;;7.70;2.10;;;10.00;99.90;;;;;;4979565;28;20188;-79
2023/04/12 01:37:57;;;;;;;4.43;1.47;;;10.10;99.90;;;;;;4975592;28;20881;-81
2023/04/12 01:40:26;;;;;;;5.40;1.40;;;10.10;99.90;;;;;;4977950;28;20606;-80
2023/04/12 01:43:10;;;;;;;5.30;1.40;;;10.10;99.90;;;;;;4969491;28;20440;-81
2023/04/12 01:45:36;;;;;;;2.23;1.30;;;10.10;99.90;;;;;;4976951;28;20439;-80
2023/04/12 01:48:04;;;;;;;3.37;1.23;;;10.10;99.90;;;;;;4977647;28;20471;-81
2023/04/12 01:50:54;;;;;;;5.70;1.30;;;10.10;99.90;;;;;;4978075;28;20428;-81
2023/04/12 01:53:30;;;;;;;2.67;1.37;;;10.10;99.90;;;;;;4971144;28;20463;-80
2023/04/12 01:56:01;;;;;;;4.37;1.40;;;10.00;99.90;;;;;;4976563;28;21183;-80
2023/04/12 01:58:29;;;;;;;1.90;1.20;;;10.00;99.90;;;;;;4971973;28;20459;-80
2023/04/12 02:00:57;;;;;;;4.03;1.10;;;10.00;99.90;;;;;;4978041;28;20442;-80
2023/04/12 02:03:23;;;;;;;3.83;1.23;;;10.00;99.90;;;;;;4975990;28;20888;-80
2023/04/12 02:05:51;;;;;;;4.10;1.70;;;10.00;99.90;;;;;;4977107;28;20998;-80
2023/04/12 02:08:16;;;;;;;4.33;1.10;;;10.00;99.90;;;;;;4968056;28;20472;-80
2023/04/12 02:10:42;;;;;;;3.00;1.20;;;10.00;1.00;;;;;;4977482;28;20961;-80
2023/04/12 02:13:08;;;;;;;2.80;0.93;;;9.90;1.00;;;;;;4976651;28;20180;-81
2023/04/12 02:15:33;;;;;;;2.07;1.17;;;9.90;51.50;;;;;;4979359;28;20240;-79
2023/04/12 02:18:00;;;;;;;3.60;1.70;;;9.90;99.90;;;;;;4972608;28;20193;-79
2023/04/12 02:20:28;;;;;;;3.63;1.20;;;9.90;99.90;;;;;;4975590;28;20177;-81
2023/04/12 02:22:54;;;;;;;4.87;1.43;;;9.90;99.90;;;;;;4977419;28;20450;-81
2023/04/12 02:25:19;;;;;;;1.87;1.10;;;9.90;1.00;;;;;;4979116;28;20447;-81
2023/04/12 02:27:45;;;;;;;4.83;1.20;;;9.90;1.00;;;;;;4979329;28;20215;-80
2023/04/12 02:30:12;;;;;;;2.92;1.30;;;9.80;99.90;;;;;;4973353;28;20200;-80
2023/04/12 02:32:44;;;;;;;1.70;1.40;;;9.80;1.00;;;;;;4972439;28;20215;-80
2023/04/12 02:35:17;;;;;;;4.67;1.30;;;9.80;99.90;;;;;;4976256;28;21238;-81
2023/04/12 02:37:47;;;;;;;2.13;1.40;;;9.70;99.90;;;;;;4976674;28;20443;-80
2023/04/12 02:40:14;;;;;;;2.70;1.30;;;9.70;1.00;;;;;;4971859;28;20455;-80
2023/04/12 02:42:41;;;;;;;5.43;1.40;;;9.60;1.00;;;;;;4977731;28;20515;-81
2023/04/12 02:45:08;;;;;;;7.40;1.23;;;9.70;1.60;;;;;;4977514;28;20450;-80
2023/04/12 02:47:33;;;;;;;3.63;1.70;;;9.60;1.00;;;;;;4979648;28;20455;-80
2023/04/12 02:49:59;;;;;;;4.60;1.27;;;9.70;1.00;;;;;;4971981;28;20463;-80
2023/04/12 02:52:24;;;;;;;4.13;1.40;;;9.70;1.00;;;;;;4980342;28;20185;-80
2023/04/12 02:54:50;;;;;;;4.20;1.20;;;9.70;1.00;;;;;;4970380;28;20184;-80
2023/04/12 02:57:16;;;;;;;3.37;1.97;;;9.70;99.90;;;;;;4977796;28;20203;-80
2023/04/12 02:59:41;;;;;;;7.50;1.40;;;9.70;99.90;;;;;;4970981;28;20302;-80
2023/04/12 03:02:07;;;;;;;2.67;1.33;;;9.70;1.00;;;;;;4965198;28;20209;-80
2023/04/12 03:04:36;;;;;;;3.10;1.60;;;9.70;1.00;;;;;;4966492;28;20186;-80
2023/04/12 03:07:02;;;;;;;2.90;1.20;;;9.80;1.00;;;;;;4972891;28;20990;-80
2023/04/12 03:09:27;;;;;;;2.20;1.20;;;9.80;1.00;;;;;;4970330;28;20452;-80
2023/04/12 03:11:53;;;;;;;3.03;1.50;;;9.70;1.00;;;;;;4973456;28;20435;-80
2023/04/12 03:14:18;;;;;;;2.63;1.80;;;9.70;1.00;;;;;;4965814;28;20602;-80
2023/04/12 03:16:44;;;;;;;2.07;1.10;;;9.70;1.00;;;;;;4971535;28;20184;-79
2023/04/12 03:19:09;;;;;;;4.67;1.40;;;9.70;1.00;;;;;;4969019;28;20208;-80
2023/04/12 03:21:35;;;;;;;3.43;1.23;;;9.70;1.00;;;;;;4964078;28;20189;-79
2023/04/12 03:24:03;;;;;;;6.43;1.77;;;9.70;1.00;;;;;;4965530;28;20284;-80
2023/04/12 03:26:29;;;;;;;3.17;1.15;;;9.70;1.00;;;;;;4959945;28;20427;-80
2023/04/12 03:29:07;;;;;;;3.23;1.50;;;9.70;1.00;;;;;;4967213;28;20200;-79
2023/04/12 03:31:33;;;;;;;3.75;1.35;;;9.60;99.90;;;;;;4962364;28;20942;-80
2023/04/12 03:33:59;;;;;;;3.70;1.40;;;9.60;99.90;;;;;;4962161;28;20565;-80
2023/04/12 03:36:26;;;;;;;1.83;1.03;;;9.60;99.90;;;;;;4954503;28;20544;-79
2023/04/12 03:38:52;;;;;;;1.70;1.30;;;9.60;28.90;;;;;;4969865;28;20455;-80
2023/04/12 03:41:17;;;;;;;1.60;0.90;;;9.60;1.00;;;;;;4969876;28;20454;-80
2023/04/12 03:43:43;;;;;;;4.00;1.47;;;9.60;1.00;;;;;;4965136;28;21058;-80
2023/04/12 03:46:08;;;;;;;5.10;1.53;;;9.60;1.00;;;;;;4958936;28;20557;-80
2023/04/12 03:48:35;;;;;;;1.77;1.00;;;9.60;1.00;;;;;;4970055;28;20235;-80
2023/04/12 03:51:07;;;;;;;2.80;1.20;;;9.60;4.10;;;;;;4974009;28;20192;-79
2023/04/12 03:53:33;;;;;;;3.13;1.20;;;9.70;99.90;;;;;;4966758;28;20434;-80
2023/04/12 03:55:59;;;;;;;4.50;1.17;;;9.70;99.90;;;;;;4963237;28;20443;-80
2023/04/12 03:58:24;;;;;;;2.53;1.30;;;9.60;99.90;;;;;;4953879;28;20456;-80
2023/04/12 04:00:50;;;;;;;2.20;1.17;;;9.70;99.90;;;;;;4968040;28;20200;-80
2023/04/12 04:03:17;;;;;;;3.20;1.40;;;9.60;99.90;;;;;;4974750;28;20781;-79
2023/04/12 04:05:43;;;;;;;3.03;1.47;;;9.60;13.50;;;;;;4966554;28;20448;-79
2023/04/12 04:08:09;;;;;;;3.43;1.60;;;9.50;1.00;;;;;;4970378;28;20487;-79
2023/04/12 04:10:35;;;;;;;4.13;2.13;;;9.50;99.90;;;;;;4965164;28;20436;-79
2023/04/12 04:13:00;;;;;;;5.30;1.50;;;9.40;1.00;;;;;;4965407;28;20313;-79
2023/04/12 04:15:26;;;;;;;8.00;1.83;;;9.30;1.00;;;;;;4973116;28;20210;-79
2023/04/12 04:17:52;;;;;;;5.03;1.55;;;9.20;99.90;;;;;;4961606;28;20208;-79
2023/04/12 04:20:18;;;;;;;3.80;1.60;;;9.20;99.90;;;;;;4970783;28;20204;-79
2023/04/12 04:22:47;;;;;;;3.93;1.63;;;9.10;99.90;;;;;;4968446;28;20196;-79
2023/04/12 04:25:13;;;;;;;7.28;1.80;;;9.00;99.90;;;;;;4971880;28;20974;-79
2023/04/12 04:27:40;;;;;;;5.50;2.23;;;9.00;1.00;;;;;;4963774;28;20219;-79
2023/04/12 04:30:06;;;;;;;7.72;2.20;;;8.90;1.00;;;;;;4970080;28;20467;-79
2023/04/12 04:32:32;;;;;;;10.20;2.72;;;8.90;1.00;;;;;;4970313;28;20177;-79
2023/04/12 04:34:58;;;;;;;6.78;2.80;;;8.90;1.00;;;;;;4970593;28;20267;-79
2023/04/12 04:37:25;;;;;;;8.07;3.20;;;8.80;1.00;;;;;;4962260;28;20276;-79
2023/04/12 04:39:50;;;;;;;8.68;2.47;;;8.80;1.00;;;;;;4968702;28;20467;-78
2023/04/12 04:42:16;;;;;;;9.03;3.60;;;8.70;1.00;;;;;;4971157;28;20182;-78
2023/04/12 04:44:42;;;;;;;13.03;3.20;;;8.70;1.00;;;;;;4969359;28;20718;-78
2023/04/12 04:47:08;;;;;;;13.27;3.00;;;8.60;1.00;;;;;;4965196;28;20197;-79
2023/04/12 04:49:34;;;;;;;9.10;3.27;;;8.60;1.00;;;;;;4970068;28;20451;-78
2023/04/12 04:52:00;;;;;;;21.10;5.65;;;8.60;1.00;;;;;;4972233;28;20223;-79
2023/04/12 04:54:25;;;;;;;12.17;4.43;;;8.50;1.00;;;;;;4971697;28;20660;-80
2023/04/12 04:56:51;;;;;;;5.80;2.73;;;8.50;1.00;;;;;;4970326;28;20849;-80
2023/04/12 04:59:16;;;;;;;21.07;4.23;;;8.60;1.00;;;;;;4970773;28;20277;-80
2023/04/12 05:01:42;;;;;;;8.90;3.03;;;8.60;1.00;;;;;;4965414;28;20196;-80
2023/04/12 05:04:07;;;;;;;12.93;3.07;;;8.50;1.00;;;;;;4966511;28;20287;-78
2023/04/12 05:06:33;;;;;;;9.83;3.60;;;8.50;1.00;;;;;;4972318;28;20570;-80
2023/04/12 05:09:00;;;;;;;9.43;4.13;;;8.50;1.00;;;;;;4968748;28;20583;-80
2023/04/12 05:11:26;;;;;;;7.03;2.90;;;8.50;1.00;;;;;;4971790;28;20180;-80
2023/04/12 05:13:52;;;;;;;10.93;3.70;;;8.50;1.00;;;;;;4965171;28;20278;-80
2023/04/12 05:16:17;;;;;;;9.30;3.93;;;8.40;1.00;;;;;;4975078;28;20271;-80
2023/04/12 05:18:43;;;;;;;16.40;4.30;;;8.50;1.00;;;;;;4970784;28;20541;-80
2023/04/12 05:21:09;;;;;;;10.30;4.10;;;8.50;1.00;;;;;;4966434;28;20264;-79
2023/04/12 05:23:36;;;;;;;10.70;3.60;;;8.50;1.00;;;;;;4962662;28;20181;-81
2023/04/12 05:26:02;;;;;;;6.50;3.83;;;8.50;1.00;;;;;;4961733;28;20172;-81
2023/04/12 05:28:30;;;;;;;12.37;3.47;;;8.50;1.00;;;;;;4972280;28;20811;-79
2023/04/12 05:30:56;;;;;;;8.38;4.10;;;8.50;1.00;;;;;;4966757;28;20432;-81
2023/04/12 05:33:21;;;;;;;5.77;3.33;;;8.50;1.00;;;;;;4969953;28;20193;-81
2023/04/12 05:35:47;;;;;;;5.73;3.10;;;8.50;1.00;;;;;;4968615;28;20181;-81
2023/04/12 05:38:12;;;;;;;12.23;4.00;;;8.50;1.00;;;;;;4967718;28;20268;-80
2023/04/12 05:40:38;;;;;;;7.47;3.83;;;8.60;1.00;;;;;;4971178;28;20672;-80
2023/04/12 05:43:03;;;;;;;6.50;3.53;;;8.50;1.00;;;;;;4974427;28;20284;-81
2023/04/12 05:45:29;;;;;;;8.13;3.47;;;8.50;1.00;;;;;;4963912;28;20269;-81
2023/04/12 05:47:54;;;;;;;7.43;3.13;;;8.50;1.00;;;;;;4973826;28;20361;-80
2023/04/12 05:50:20;;;;;;;7.97;3.63;;;8.60;1.00;;;;;;4972912;28;20274;-81
2023/04/12 05:52:49;;;;;;;7.53;3.37;;;8.60;1.00;;;;;;4973557;28;20239;-81
2023/04/12 05:55:16;;;;;;;7.35;3.67;;;8.60;1.00;;;;;;4972470;28;20440;-81
2023/04/12 05:57:43;;;;;;;8.77;4.22;;;8.60;1.00;;;;;;4972612;28;20184;-80
2023/04/12 06:00:16;;;;;;;9.13;3.33;;;8.70;1.00;;;;;;4967153;28;20251;-81
2023/04/12 06:02:43;;;;;;;9.07;3.30;;;8.70;1.00;;;;;;4975355;28;20508;-81
2023/04/12 06:05:10;;;;;;;9.10;3.20;;;8.80;1.00;;;;;;4972766;28;20447;-81
2023/04/12 06:07:38;;;;;;;10.20;2.95;;;8.80;1.00;;;;;;4972124;28;20278;-82
2023/04/12 06:10:04;;;;;;;6.38;2.85;;;8.90;1.00;;;;;;4972242;28;20207;-82
2023/04/12 06:12:30;;;;;;;7.25;2.75;;;8.90;1.00;;;;;;4967955;28;20215;-82
2023/04/12 06:14:55;;;;;;;6.80;2.77;;;9.00;1.00;;;;;;4974178;28;20188;-82
2023/04/12 06:17:21;;;;;;;5.10;2.90;;;9.10;1.00;;;;;;4969810;28;20239;-80
2023/04/12 06:19:46;;;;;;;9.60;2.97;;;9.20;1.00;;;;;;4971341;28;20204;-82
2023/04/12 06:22:12;;;;;;;8.60;3.13;;;9.20;1.00;;;;;;4966762;28;20208;-82
2023/04/12 06:24:38;;;;;;;7.07;2.93;;;9.30;1.00;;;;;;4972851;28;20181;-82
2023/04/12 06:27:03;;;;;;;3.93;2.40;;;9.30;1.00;;;;;;4975609;28;20235;-82
2023/04/12 06:29:29;;;;;;;4.13;2.27;;;9.30;1.00;;;;;;4970010;28;20208;-82
2023/04/12 06:31:54;;;;;;;10.17;2.90;;;9.30;1.00;;;;;;4965666;28;20188;-82
2023/04/12 06:34:20;;;;;;;4.80;2.43;;;9.30;1.00;;;;;;4967241;28;20252;-82
2023/04/12 06:36:46;;;;;;;6.67;2.90;;;9.30;1.00;;;;;;4983118;28;20190;-80
2023/04/12 06:39:15;;;;;;;9.60;3.20;;;9.30;1.00;;;;;;4980767;28;20208;-81
2023/04/12 06:41:42;;;;;;;5.80;2.80;;;9.30;1.00;;;;;;4975323;28;20542;-81
2023/04/12 06:44:08;;;;;;;5.33;3.00;;;9.40;1.00;;;;;;4964558;28;20582;-83
2023/04/12 06:46:34;;;;;;;4.50;2.13;;;9.40;1.00;;;;;;4964282;28;20436;-82
2023/04/12 06:49:00;;;;;;;8.23;2.60;;;9.50;1.00;;;;;;4968518;28;20447;-80
2023/04/12 06:51:26;;;;;;;9.60;2.13;;;9.60;1.00;;;;;;4972991;28;20427;-80
2023/04/12 06:53:52;;;;;;;5.90;2.30;;;9.70;1.00;;;;;;4975163;28;20898;-80
2023/04/12 06:56:18;;;;;;;7.03;2.50;;;9.70;1.00;;;;;;4976447;28;20431;-81
2023/04/12 06:58:44;;;;;;;5.23;2.73;;;9.70;1.00;;;;;;4974684;28;20220;-83
2023/04/12 07:01:09;;;;;;;6.87;2.90;;;9.80;1.00;;;;;;4973440;28;20536;-82
2023/04/12 07:03:38;;;;;;;5.57;2.53;;;9.90;1.00;;;;;;4965587;28;20192;-83
2023/04/12 07:06:11;;;;;;;4.63;2.87;;;10.00;1.00;;;;;;4968837;28;20191;-81
2023/04/12 07:08:36;;;;;;;5.90;2.77;;;10.10;1.00;;;;;;4970352;28;20482;-83
2023/04/12 07:11:02;;;;;;;6.70;4.27;;;10.10;1.00;;;;;;4978683;28;20440;-82
2023/04/12 07:13:29;;;;;;;4.30;2.80;;;10.10;1.00;;;;;;4975005;28;20181;-82
2023/04/12 07:15:55;;;;;;;8.50;2.87;;;10.10;1.00;;;;;;4978358;28;20540;-83
2023/04/12 07:18:20;;;;;;;6.27;3.20;;;10.10;1.00;;;;;;4977245;28;20543;-83
2023/04/12 07:20:47;;;;;;;5.00;3.40;;;10.10;1.00;;;;;;4971556;28;20188;-83
2023/04/12 07:23:14;;;;;;;10.30;3.63;;;10.10;1.00;;;;;;4964499;28;20569;-83
2023/04/12 07:25:39;;;;;;;9.63;4.67;;;10.10;1.00;;;;;;4974602;28;20538;-83
2023/04/12 07:28:05;;;;;;;7.20;5.13;;;10.00;1.00;;;;;;4963066;28;20927;-83
2023/04/12 07:30:30;;;;;;;19.60;6.77;;;10.00;1.00;;;;;;4972326;28;20180;-83
2023/04/12 07:32:56;;;;;;;21.60;7.87;;;9.90;1.00;;;;;;4973453;28;20211;-83
2023/04/12 07:35:22;;;;;;;41.33;8.70;;;10.10;1.00;;;;;;4976191;28;20189;-84
2023/04/12 07:37:47;;;;;;;10.67;5.07;;;10.20;1.00;;;;;;4969549;28;20653;-84
2023/04/12 07:40:13;;;;;;;9.47;5.17;;;10.30;1.00;;;;;;4970516;28;20221;-84
2023/04/12 07:42:38;;;;;;;8.40;4.57;;;10.30;1.00;;;;;;4973980;28;20678;-83
2023/04/12 07:45:05;;;;;;;5.87;3.70;;;10.40;1.00;;;;;;4975287;28;20181;-84
2023/04/12 07:47:31;;;;;;;5.50;3.47;;;10.30;1.00;;;;;;4978211;28;20196;-84
2023/04/12 07:49:57;;;;;;;8.47;3.73;;;10.40;1.00;;;;;;4978398;28;20455;-84
2023/04/12 07:52:23;;;;;;;5.87;3.00;;;10.50;1.00;;;;;;4977382;28;20436;-84
2023/04/12 07:54:49;;;;;;;7.93;3.60;;;10.60;1.00;;;;;;4975276;28;20435;-84
2023/04/12 07:57:15;;;;;;;5.27;3.00;;;10.70;1.00;;;;;;4971734;28;20454;-84
2023/04/12 07:59:40;;;;;;;6.53;3.10;;;10.80;1.00;;;;;;4966409;28;20216;-84
2023/04/12 08:02:08;;;;;;;6.43;3.30;;;10.90;1.00;;;;;;4965267;28;20442;-84
2023/04/12 08:04:34;;;;;;;6.60;3.80;;;10.90;1.00;;;;;;4973268;28;20779;-83
2023/04/12 08:06:59;;;;;;;4.13;2.83;;;11.10;1.00;;;;;;4963891;28;20471;-82
2023/04/12 08:09:25;;;;;;;2.80;2.30;;;11.20;1.00;;;;;;4970776;28;20207;-84
2023/04/12 08:11:51;;;;;;;4.33;2.60;;;11.40;1.00;;;;;;4961207;28;20548;-86
2023/04/12 08:14:20;;;;;;;3.80;2.97;;;11.40;1.00;;;;;;4962633;28;20180;-84
2023/04/12 08:16:45;;;;;;;2.63;1.83;;;11.50;1.00;;;;;;4964460;28;20509;-85
2023/04/12 08:19:11;;;;;;;7.33;2.10;;;11.50;1.00;;;;;;4969185;28;20463;-83
2023/04/12 08:21:36;;;;;;;3.70;2.10;;;11.50;1.00;;;;;;4971957;28;20360;-83
2023/04/12 08:24:02;;;;;;;4.90;2.30;;;11.50;1.00;;;;;;4975658;28;20185;-83
2023/04/12 08:26:30;;;;;;;3.30;2.30;;;11.40;1.00;;;;;;4975848;28;20250;-84
2023/04/12 08:28:57;;;;;;;4.17;1.90;;;11.40;1.00;;;;;;4975979;28;20200;-85
2023/04/12 08:31:22;;;;;;;3.30;1.83;;;11.30;1.00;;;;;;4973047;28;20439;-85
2023/04/12 08:33:48;;;;;;;4.03;2.40;;;11.40;1.00;;;;;;4975504;28;20511;-85
2023/04/12 08:36:14;;;;;;;3.00;2.13;;;11.40;1.00;;;;;;4972740;28;20231;-84
2023/04/12 08:38:40;;;;;;;5.67;2.17;;;11.30;1.00;;;;;;4973656;28;20256;-83
2023/04/12 08:41:06;;;;;;;5.53;2.20;;;11.20;1.00;;;;;;4969702;28;20462;-85
2023/04/12 08:43:36;;;;;;;3.40;2.30;;;11.20;1.00;;;;;;4974058;28;20432;-84
2023/04/12 08:46:06;;;;;;;5.83;2.50;;;11.20;1.00;;;;;;4975592;28;20864;-83
2023/04/12 08:48:39;;;;;;;3.73;2.00;;;11.30;1.00;;;;;;4969653;28;20535;-84
2023/04/12 08:51:16;;;;;;;5.70;1.80;;;11.30;1.00;;;;;;4977229;28;20439;-85
2023/04/12 08:53:44;;;;;;;2.93;1.60;;;11.40;1.00;;;;;;4976174;28;20534;-84
2023/04/12 08:56:15;;;;;;;2.50;1.73;;;11.50;1.00;;;;;;4975506;28;20443;-85
2023/04/12 08:58:44;;;;;;;3.50;1.63;;;11.60;1.00;;;;;;4973068;28;20470;-84
2023/04/12 09:01:14;;;;;;;3.07;1.80;;;11.60;1.00;;;;;;4971809;28;20510;-86
2023/04/12 09:03:56;;;;;;;1.77;1.57;;;11.60;1.00;;;;;;4971327;28;20460;-84
2023/04/12 09:06:22;;;;;;;2.70;1.53;;;11.90;1.00;;;;;;4977327;28;20446;-85
2023/04/12 09:08:55;;;;;;;2.97;1.80;;;12.10;1.00;;;;;;4970195;28;20475;-85
2023/04/12 09:11:26;;;;;;;5.70;2.00;;;12.30;1.00;;;;;;4978120;28;20176;-85
2023/04/12 09:13:54;;;;;;;2.50;1.97;;;12.40;1.00;;;;;;4974591;28;20439;-85
2023/04/12 09:16:40;;;;;;;3.00;2.10;;;12.60;1.00;;;;;;4975450;28;20935;-83
2023/04/12 09:19:11;;;;;;;3.47;2.27;;;12.50;1.00;;;;;;4974331;28;20909;-85
2023/04/12 09:21:53;;;;;;;4.20;2.60;;;12.40;1.00;;;;;;4975443;28;20451;-83
2023/04/12 09:24:22;;;;;;;9.70;3.20;;;12.40;1.00;;;;;;4976311;28;20443;-85
2023/04/12 09:27:04;;;;;;;6.30;3.43;;;12.50;1.00;;;;;;4976711;28;20467;-85
2023/04/12 09:29:31;;;;;;;6.70;4.17;;;12.70;1.00;;;;;;4974041;28;20455;-85
2023/04/12 09:32:08;;;;;;;7.83;4.40;;;13.50;1.00;;;;;;4977211;28;20436;-85
2023/04/12 09:34:35;;;;;;;12.03;6.43;;;16.20;99.90;;;;;;4976030;28;20442;-84
2023/04/12 09:37:16;;;;;;;12.27;6.57;;;17.20;1.00;;;;;;4978111;28;20439;-85
2023/04/12 09:39:42;;;;;;;16.67;6.70;;;19.00;1.00;;;;;;4972932;28;20457;-85
2023/04/12 09:42:11;;;;;;;17.10;6.77;;;19.60;1.00;;;;;;4978619;28;20435;-85
2023/04/12 09:44:40;;;;;;;15.00;7.43;;;20.20;1.00;;;;;;4975191;28;20828;-83
2023/04/12 09:47:05;;;;;;;16.50;7.43;;;19.60;1.00;;;;;;4986433;28;20893;-85
2023/04/12 09:49:39;;;;;;;19.37;9.40;;;19.00;1.00;;;;;;4977668;28;20548;-85
2023/04/12 09:52:12;;;;;;;19.03;9.67;;;19.50;1.00;;;;;;4977049;28;20181;-84
2023/04/12 10:01:37;;;;;;;19.57;9.10;;;20.80;99.90;;;;;;4975632;28;20447;-83
2023/04/12 10:04:06;;;;;;;13.77;7.80;;;19.50;99.90;;;;;;4979267;28;20452;-83
2023/04/12 10:06:32;;;;;;;16.63;9.53;;;18.60;99.90;;;;;;4976555;28;20457;-85
2023/04/12 10:09:07;;;;;;;16.70;9.00;;;17.50;99.90;;;;;;4992897;28;20471;-82
2023/04/12 10:11:40;;;;;;;18.80;7.83;;;16.40;1.00;;;;;;4984072;28;20435;-83
2023/04/12 10:14:16;;;;;;;19.63;8.90;;;15.80;1.00;;;;;;4973384;28;20435;-82
2023/04/12 10:16:45;;;;;;;16.97;9.10;;;15.30;99.90;;;;;;4974084;28;20497;-83
2023/04/12 10:19:15;;;;;;;14.67;8.77;;;15.10;1.00;;;;;;4973715;28;20488;-84
2023/04/12 10:21:44;;;;;;;16.80;7.87;;;15.00;1.00;;;;;;4975704;28;20500;-83
2023/04/12 10:24:10;;;;;;;14.83;8.33;;;14.90;13.30;;;;;;4976073;28;20470;-85
2023/04/12 10:26:43;;;;;;;11.03;5.97;;;14.70;5.80;;;;;;4975548;28;20455;-84
2023/04/12 10:29:26;;;;;;;10.80;5.20;;;14.50;99.90;;;;;;4977649;28;20457;-84
2023/04/12 10:31:55;;;;;;;11.20;4.60;;;14.60;99.90;;;;;;4972847;28;20974;-84
2023/04/12 10:34:41;;;;;;;11.37;4.50;;;14.70;1.00;;;;;;4976202;28;20446;-84
2023/04/12 10:37:07;;;;;;;11.80;3.50;;;14.90;1.00;;;;;;4975957;28;20443;-86
2023/04/12 11:34:06;;;;;;;;;;;;;;;;;;;;;
